Time;durP1;ratioP1;P1;durP2;ratioP2;P2;SDS_P1;SDS_P2;PMS_P1;PMS_P2;Temp;Humidity;BMP_temperature;BMP_pressure;BME280_temperature;BME280_humidity;BME280_pressure;Samples;Min_cycle;Max_cycle;Signal;HPM_P1;HPM_P2
2021/12/06 00:04:50;;;;;;;35.30;16.30;;;;;;;1.38;83.32;97630.33;422424;1305;98881;-41
2021/12/06 00:14:57;;;;;;;32.60;15.10;;;;;;;1.29;83.44;97642.13;422550;1305;112552;-42
2021/12/06 00:25:09;;;;;;;39.70;17.70;;;;;;;1.28;83.56;97655.47;422184;1305;107862;-41
2021/12/06 00:35:22;;;;;;;33.90;16.60;;;;;;;1.22;83.68;97654.41;422579;1305;98841;-41
2021/12/06 00:45:30;;;;;;;41.90;17.60;;;;;;;1.19;83.86;97657.96;422454;1305;108860;-42
2021/12/06 00:55:38;;;;;;;46.70;19.80;;;;;;;1.22;83.96;97660.46;422612;1305;99283;-42
2021/12/06 01:05:46;;;;;;;58.90;23.60;;;;;;;1.14;83.96;97652.77;422243;1305;112464;-40
2021/12/06 01:15:54;;;;;;;63.50;25.30;;;;;;;1.05;84.19;97662.66;418786;1305;5469910;-41
2021/12/06 01:46:36;;;;;;;51.10;21.60;;;;;;;1.07;84.45;97650.13;422406;1306;108799;-41
2021/12/06 01:56:44;;;;;;;40.80;17.80;;;;;;;1.19;84.30;97663.77;422736;1307;99282;-43
2021/12/06 02:06:52;;;;;;;41.70;18.10;;;;;;;1.20;84.26;97662.70;422260;1312;107981;-40
2021/12/06 02:27:10;;;;;;;70.70;29.60;;;;;;;1.04;84.38;97642.63;422376;1312;110854;-41
2021/12/06 02:37:23;;;;;;;44.60;20.00;;;;;;;0.90;84.31;97634.13;423176;1293;109007;-40
2021/12/06 02:47:38;;;;;;;33.20;17.70;;;;;;;0.85;84.44;97649.57;422350;1307;98390;-41
2021/12/06 02:57:46;;;;;;;40.30;18.70;;;;;;;0.89;84.43;97671.77;422791;1306;108834;-40
2021/12/06 03:07:58;;;;;;;38.50;19.60;;;;;;;0.91;84.43;97679.83;422479;1305;99414;-41
2021/12/06 03:18:05;;;;;;;45.10;23.10;;;;;;;0.85;84.36;97683.95;422709;1307;112327;-41
2021/12/06 03:28:12;;;;;;;57.30;24.60;;;;;;;0.69;84.67;97719.96;422716;1309;107336;-41
2021/12/06 03:38:18;;;;;;;51.20;24.60;;;;;;;0.56;84.87;97726.35;422417;1307;98076;-40
2021/12/06 03:48:25;;;;;;;50.80;24.60;;;;;;;0.50;84.92;97720.90;422723;1306;112516;-40
2021/12/06 03:58:34;;;;;;;58.30;26.10;;;;;;;0.43;85.28;97717.59;422500;1305;109237;-41
2021/12/06 04:08:42;;;;;;;53.50;24.90;;;;;;;0.39;85.24;97716.28;422700;1308;98978;-41
2021/12/06 04:39:04;;;;;;;62.50;28.70;;;;;;;0.34;85.71;97742.64;422735;1306;110995;-42
2021/12/06 04:49:12;;;;;;;55.10;24.80;;;;;;;0.36;85.50;97757.66;422598;1306;108824;-40
2021/12/06 04:59:23;;;;;;;58.50;26.20;;;;;;;0.34;85.63;97772.64;422354;1306;99296;-41
2021/12/06 05:09:36;;;;;;;64.60;26.80;;;;;;;0.27;85.48;97770.47;422631;1305;109002;-41
2021/12/06 05:19:45;;;;;;;53.10;27.20;;;;;;;0.28;85.85;97773.52;422353;1306;99280;-40
2021/12/06 05:29:57;;;;;;;55.50;25.20;;;;;;;0.24;85.69;97792.87;422645;1306;112570;-41
2021/12/06 05:40:09;;;;;;;54.00;23.40;;;;;;;0.17;85.87;97809.63;422620;1306;109171;-42
2021/12/06 05:50:17;;;;;;;56.10;24.30;;;;;;;0.13;86.17;97808.02;422459;1306;99289;-42
2021/12/06 06:00:28;;;;;;;57.10;23.10;;;;;;;0.13;86.28;97797.86;422749;1306;106984;-40
2021/12/06 06:10:35;;;;;;;71.90;29.20;;;;;;;0.07;86.43;97806.92;422479;1306;99270;-40
2021/12/06 06:20:43;;;;;;;67.90;29.70;;;;;;;0.04;86.64;97816.30;422280;1305;112464;-40
2021/12/06 06:30:48;;;;;;;76.50;30.70;;;;;;;0.02;86.44;97844.39;422697;1306;108883;-40
2021/12/06 06:40:56;;;;;;;82.70;32.90;;;;;;;0.04;86.42;97874.60;422383;1305;98933;-40
2021/12/06 06:51:02;;;;;;;113.20;39.90;;;;;;;-0.07;86.53;97881.77;422661;1305;108989;-40
2021/12/06 07:01:09;;;;;;;86.80;34.60;;;;;;;-0.14;86.54;97878.98;422582;1305;99268;-40
2021/12/06 07:11:17;;;;;;;90.50;34.90;;;;;;;-0.18;86.76;97864.63;422708;1305;110760;-39
2021/12/06 07:21:23;;;;;;;75.30;31.50;;;;;;;-0.20;86.88;97879.88;422546;1306;107907;-41
2021/12/06 07:31:30;;;;;;;92.70;35.80;;;;;;;-0.21;87.18;97877.75;422588;1305;98330;-40
2021/12/06 07:41:38;;;;;;;67.50;29.90;;;;;;;-0.15;86.88;97909.57;422634;1305;107863;-41
2021/12/06 07:51:46;;;;;;;68.00;27.90;;;;;;;-0.13;86.82;97927.18;422384;1305;98880;-40
2021/12/06 08:01:53;;;;;;;78.40;34.50;;;;;;;-0.16;87.01;97937.10;422459;1305;111055;-41
2021/12/06 08:12:00;;;;;;;80.50;32.60;;;;;;;-0.19;87.15;97935.21;422498;1305;106134;-40
2021/12/06 08:22:08;;;;;;;68.00;27.20;;;;;;;-0.16;87.07;97935.67;422633;1306;99269;-40
2021/12/06 08:32:14;;;;;;;47.80;21.10;;;;;;;-0.15;86.93;97935.20;422543;1306;111771;-40
2021/12/06 08:42:22;;;;;;;41.20;19.40;;;;;;;-0.16;87.02;97941.29;422537;1306;108850;-41
2021/12/06 08:52:29;;;;;;;45.40;23.70;;;;;;;-0.10;87.26;97946.84;422702;1305;98395;-41
2021/12/06 09:02:35;;;;;;;75.50;35.10;;;;;;;-0.13;87.08;97958.08;422501;1305;108790;-41
2021/12/06 09:13:01;;;;;;;50.80;23.90;;;;;;;-0.16;87.15;97962.91;422674;1306;98826;-40
2021/12/06 09:23:12;;;;;;;49.20;24.00;;;;;;;-0.09;87.18;97959.65;418463;1306;5396292;-40
2021/12/06 09:33:19;;;;;;;61.20;27.00;;;;;;;0.02;87.08;97964.97;422579;1306;108793;-39
2021/12/06 09:43:27;;;;;;;68.80;31.70;;;;;;;-0.10;87.26;97972.60;422476;1305;98885;-40
2021/12/06 09:53:38;;;;;;;58.80;26.00;;;;;;;-0.23;87.20;97982.95;422935;1306;112448;-40
2021/12/06 10:13:51;;;;;;;62.70;24.80;;;;;;;-0.18;87.33;97984.67;422418;1305;98867;-39
2021/12/06 10:24:00;;;;;;;60.30;26.30;;;;;;;-0.16;87.40;97979.91;422577;1306;107014;-41
2021/12/06 10:34:08;;;;;;;53.90;25.90;;;;;;;-0.14;87.67;97980.38;422293;1306;99309;-39
2021/12/06 10:44:17;;;;;;;45.70;24.50;;;;;;;-0.12;87.43;97981.71;422466;1305;112552;-40
2021/12/06 11:04:37;;;;;;;66.20;29.40;;;;;;;-0.15;87.62;97983.04;422602;1305;99277;-41
2021/12/06 11:14:48;;;;;;;40.00;22.00;;;;;;;-0.15;87.46;97985.84;422331;1305;113080;-40
2021/12/06 11:24:57;;;;;;;38.70;21.20;;;;;;;-0.05;87.35;97982.89;422748;1305;108764;-40
2021/12/06 11:35:08;;;;;;;33.30;20.20;;;;;;;0.03;87.42;97980.46;422538;1305;99311;-40
2021/12/06 11:45:14;;;;;;;34.30;19.90;;;;;;;0.12;87.30;97985.77;422631;1305;108986;-39
2021/12/06 11:55:22;;;;;;;40.80;21.50;;;;;;;0.17;87.34;97987.48;422427;1305;99382;-40
2021/12/06 12:05:28;;;;;;;38.60;21.60;;;;;;;0.21;87.41;97993.81;422811;1305;112646;-40
2021/12/06 12:15:37;;;;;;;33.70;19.80;;;;;;;0.30;87.29;98004.12;422276;1305;108797;-41
2021/12/06 12:25:52;;;;;;;29.90;17.70;;;;;;;0.30;87.04;98011.77;422725;1305;98002;-41
2021/12/06 12:35:58;;;;;;;38.20;20.30;;;;;;;0.34;87.04;98011.45;422587;1306;112539;-40
2021/12/06 12:46:04;;;;;;;26.40;16.40;;;;;;;0.40;87.27;98019.27;422639;1306;108587;-40
2021/12/06 12:56:19;;;;;;;36.70;22.70;;;;;;;0.44;87.22;98014.61;422588;1305;99671;-40
2021/12/06 13:06:28;;;;;;;23.40;15.40;;;;;;;0.43;87.05;98009.55;422469;1306;112375;-39
2021/12/06 13:26:52;;;;;;;27.10;15.50;;;;;;;0.47;87.14;98024.98;422543;1306;98440;-40
2021/12/06 13:37:01;;;;;;;53.10;26.00;;;;;;;0.34;87.09;98034.55;422534;1305;108895;-41
2021/12/06 13:47:10;;;;;;;45.40;24.50;;;;;;;0.09;87.18;98037.33;422482;1306;99966;-40
2021/12/06 13:57:17;;;;;;;;;;;;;;;0.01;87.01;98035.34;422710;1305;99286;-39
2021/12/06 14:07:26;;;;;;;27.10;17.20;;;;;;;-0.02;87.09;98051.19;422566;1306;109403;-40
2021/12/06 14:17:33;;;;;;;44.30;21.80;;;;;;;-0.07;87.06;98066.98;422608;1305;99196;-40
2021/12/06 14:27:41;;;;;;;46.40;26.40;;;;;;;-0.06;87.16;98070.65;422361;1305;111523;-40
2021/12/06 14:37:49;;;;;;;94.10;50.30;;;;;;;-0.18;87.27;98070.24;422557;1306;109178;-40
2021/12/06 14:47:59;;;;;;;59.40;33.20;;;;;;;-0.27;87.35;98070.92;422762;1306;99312;-40
2021/12/06 14:58:12;;;;;;;54.80;32.60;;;;;;;-0.25;87.10;98093.31;422528;1306;112426;-40
2021/12/06 15:08:24;;;;;;;31.60;18.80;;;;;;;-0.24;87.12;98107.25;422678;1306;108706;-39
2021/12/06 15:18:33;;;;;;;34.30;21.50;;;;;;;-0.26;87.22;98111.28;422588;1306;99824;-39
2021/12/06 15:28:42;;;;;;;40.50;24.10;;;;;;;-0.35;87.18;98119.56;422891;1305;108972;-40
2021/12/06 15:38:47;;;;;;;37.90;20.80;;;;;;;-0.46;87.35;98129.64;422629;1306;99298;-40
2021/12/06 15:48:54;;;;;;;30.60;18.80;;;;;;;-0.46;87.22;98129.70;422622;1305;111163;-40
2021/12/06 15:59:01;;;;;;;35.40;19.00;;;;;;;-0.45;87.11;98133.38;422373;1305;108817;-40
2021/12/06 16:09:08;;;;;;;36.00;18.20;;;;;;;-0.42;87.13;98125.20;422733;1306;99317;-38
2021/12/06 16:19:21;;;;;;;52.00;24.40;;;;;;;-0.42;87.13;98135.27;422785;1306;109018;-39
2021/12/06 16:29:31;;;;;;;32.70;18.80;;;;;;;-0.53;87.11;98143.60;422390;1305;99346;-40
2021/12/06 16:49:53;;;;;;;59.60;24.40;;;;;;;-0.49;86.91;98149.98;422408;1305;109102;-40
2021/12/06 17:00:01;;;;;;;51.20;24.30;;;;;;;-0.47;87.02;98156.11;422788;1305;99301;-40
2021/12/06 17:10:26;;;;;;;60.00;28.70;;;;;;;-0.51;87.00;98156.73;422721;1306;109010;-41
2021/12/06 17:20:34;;;;;;;55.50;26.30;;;;;;;-0.63;86.95;98148.89;422561;1306;477337;-39
2021/12/06 17:40:52;;;;;;;41.80;21.60;;;;;;;-0.65;87.18;98145.39;422665;1305;109013;-40
2021/12/06 17:50:58;;;;;;;41.40;22.10;;;;;;;-0.64;87.07;98143.13;422384;1306;99923;-40
2021/12/06 18:01:10;;;;;;;49.20;24.90;;;;;;;-0.66;86.94;98147.32;422706;1306;107986;-40
2021/12/06 18:11:39;;;;;;;48.10;24.70;;;;;;;-0.63;87.16;98152.85;422135;1305;99274;-40
2021/12/06 18:21:46;;;;;;;63.30;29.00;;;;;;;-0.63;87.08;98158.60;422718;1306;112425;-40
2021/12/06 18:31:55;;;;;;;74.80;36.10;;;;;;;-0.77;86.92;98170.17;422489;1305;109298;-39
2021/12/06 18:42:04;;;;;;;65.30;29.40;;;;;;;-0.81;87.01;98172.20;422672;1305;98327;-40
2021/12/06 18:52:11;;;;;;;74.20;40.60;;;;;;;-0.78;87.09;98182.08;422661;1309;107984;-40
2021/12/06 19:02:20;;;;;;;65.00;31.60;;;;;;;-0.76;86.88;98186.77;422950;1309;99276;-39
2021/12/06 19:12:37;;;;;;;58.40;31.00;;;;;;;-0.73;87.02;98191.21;422438;1305;111970;-40
2021/12/06 19:22:44;;;;;;;74.50;35.00;;;;;;;-0.76;86.98;98189.80;422732;1306;108921;-41
2021/12/06 19:32:55;;;;;;;77.20;37.70;;;;;;;-0.86;87.05;98195.77;422598;1306;98463;-40
2021/12/06 19:43:04;;;;;;;59.80;31.00;;;;;;;-0.92;86.80;98212.48;422658;1311;112510;-40
2021/12/06 19:53:15;;;;;;;78.50;35.90;;;;;;;-0.86;86.90;98209.21;422460;1307;109256;-40
2021/12/06 20:03:23;;;;;;;60.20;30.00;;;;;;;-0.72;86.88;98212.14;422722;1309;99186;-38
2021/12/06 20:13:33;;;;;;;90.40;39.10;;;;;;;-0.68;86.73;98221.81;422598;1307;108925;-40
2021/12/06 20:23:44;;;;;;;89.80;38.90;;;;;;;-0.79;86.79;98227.13;422642;1305;99405;-39
2021/12/06 20:33:51;;;;;;;59.50;29.50;;;;;;;-0.95;86.75;98227.36;422732;1305;111538;-40
2021/12/06 20:43:59;;;;;;;65.50;32.90;;;;;;;-1.00;86.53;98221.86;422356;1305;107797;-40
2021/12/06 20:54:06;;;;;;;51.00;24.30;;;;;;;-0.94;86.69;98213.79;422584;1310;99288;-39
2021/12/06 21:04:12;;;;;;;74.10;34.20;;;;;;;-0.91;86.59;98211.14;422455;1307;107946;-39
2021/12/06 21:24:31;;;;;;;58.80;27.10;;;;;;;-1.05;86.58;98213.77;422559;1311;111376;-39
2021/12/06 21:34:39;;;;;;;62.60;29.80;;;;;;;-1.04;86.42;98214.52;422678;1306;108984;-40
2021/12/06 21:44:47;;;;;;;78.60;33.70;;;;;;;-1.03;86.49;98205.72;422546;1312;98871;-38
2021/12/06 21:54:54;;;;;;;84.90;34.50;;;;;;;-1.03;86.58;98206.36;422849;1310;108909;-40
2021/12/06 22:05:02;;;;;;;86.20;36.30;;;;;;;-1.16;86.61;98195.73;422604;1311;99325;-41
2021/12/06 22:15:27;;;;;;;75.90;31.90;;;;;;;-1.28;86.61;98186.96;422465;1306;112567;-40
2021/12/06 22:25:34;;;;;;;69.80;32.40;;;;;;;-1.29;86.58;98188.14;422481;1307;99376;-40
2021/12/06 22:35:40;;;;;;;65.50;31.50;;;;;;;-1.20;86.41;98181.11;422705;1307;98535;-39
2021/12/06 22:45:51;;;;;;;61.70;28.40;;;;;;;-1.08;86.24;98176.15;422455;1307;112498;-39
2021/12/06 22:55:59;;;;;;;79.70;35.10;;;;;;;-1.07;86.44;98169.66;422831;1309;108831;-39
2021/12/06 23:06:05;;;;;;;77.70;34.30;;;;;;;-1.15;86.38;98179.19;422394;1309;99366;-40
2021/12/06 23:16:13;;;;;;;87.60;35.70;;;;;;;-1.36;86.21;98179.24;422809;1305;112476;-40
2021/12/06 23:26:25;;;;;;;74.20;35.80;;;;;;;-1.45;86.36;98184.81;422566;1305;108943;-39
2021/12/06 23:36:35;;;;;;;69.00;31.50;;;;;;;-1.37;86.37;98183.77;422722;1310;99303;-40
2021/12/06 23:46:42;;;;;;;68.10;32.60;;;;;;;-1.25;86.26;98177.48;422663;1307;112597;-40
2021/12/06 23:56:50;;;;;;;82.70;36.10;;;;;;;-1.23;86.45;98173.30;422661;1306;108826;-39
